sensor_id;sensor_type;location;lat;lon;timestamp;temperature;humidity
7708;DHT22;3896;48.758;8.888;2024-03-17T00:00:41;7.60;97.50
7708;DHT22;3896;48.758;8.888;2024-03-17T00:03:07;7.50;97.80
7708;DHT22;3896;48.758;8.888;2024-03-17T00:05:37;7.40;98.10
7708;DHT22;3896;48.758;8.888;2024-03-17T00:08:04;7.40;98.00
7708;DHT22;3896;48.758;8.888;2024-03-17T00:10:33;7.40;98.20
7708;DHT22;3896;48.758;8.888;2024-03-17T00:12:59;7.30;98.50
7708;DHT22;3896;48.758;8.888;2024-03-17T00:15:26;7.30;98.70
7708;DHT22;3896;48.758;8.888;2024-03-17T00:17:51;7.30;99.00
7708;DHT22;3896;48.758;8.888;2024-03-17T00:20:17;7.20;99.10
7708;DHT22;3896;48.758;8.888;2024-03-17T00:22:49;7.20;99.20
7708;DHT22;3896;48.758;8.888;2024-03-17T00:25:16;7.10;99.10
7708;DHT22;3896;48.758;8.888;2024-03-17T00:27:43;7.10;99.20
7708;DHT22;3896;48.758;8.888;2024-03-17T00:30:11;7.10;99.40
7708;DHT22;3896;48.758;8.888;2024-03-17T00:32:41;7.00;99.70
7708;DHT22;3896;48.758;8.888;2024-03-17T00:35:08;7.00;99.90
7708;DHT22;3896;48.758;8.888;2024-03-17T00:37:35;7.00;99.90
7708;DHT22;3896;48.758;8.888;2024-03-17T00:40:02;6.90;99.90
7708;DHT22;3896;48.758;8.888;2024-03-17T00:42:28;6.90;99.90
7708;DHT22;3896;48.758;8.888;2024-03-17T00:44:53;6.90;99.90
7708;DHT22;3896;48.758;8.888;2024-03-17T00:47:20;6.80;99.90
7708;DHT22;3896;48.758;8.888;2024-03-17T00:49:45;6.80;99.90
7708;DHT22;3896;48.758;8.888;2024-03-17T00:52:11;6.80;99.90
7708;DHT22;3896;48.758;8.888;2024-03-17T00:54:36;6.70;99.90
7708;DHT22;3896;48.758;8.888;2024-03-17T00:57:02;6.70;99.90
7708;DHT22;3896;48.758;8.888;2024-03-17T00:59:28;6.70;99.90
7708;DHT22;3896;48.758;8.888;2024-03-17T01:01:53;6.70;99.90
7708;DHT22;3896;48.758;8.888;2024-03-17T01:04:19;6.60;99.90
7708;DHT22;3896;48.758;8.888;2024-03-17T01:06:44;6.60;99.90
7708;DHT22;3896;48.758;8.888;2024-03-17T01:09:10;6.50;99.90
7708;DHT22;3896;48.758;8.888;2024-03-17T01:11:35;6.50;99.90
7708;DHT22;3896;48.758;8.888;2024-03-17T01:14:01;6.50;99.90
7708;DHT22;3896;48.758;8.888;2024-03-17T01:16:26;6.50;99.90
7708;DHT22;3896;48.758;8.888;2024-03-17T01:18:52;6.50;99.90
7708;DHT22;3896;48.758;8.888;2024-03-17T01:21:19;6.40;99.90
7708;DHT22;3896;48.758;8.888;2024-03-17T01:23:44;6.40;99.90
7708;DHT22;3896;48.758;8.888;2024-03-17T01:26:10;6.40;99.90
7708;DHT22;3896;48.758;8.888;2024-03-17T01:28:36;6.40;99.90
7708;DHT22;3896;48.758;8.888;2024-03-17T01:31:06;6.30;99.90
7708;DHT22;3896;48.758;8.888;2024-03-17T01:33:31;6.30;99.90
7708;DHT22;3896;48.758;8.888;2024-03-17T01:35:57;6.30;99.90
7708;DHT22;3896;48.758;8.888;2024-03-17T01:38:22;6.20;99.90
7708;DHT22;3896;48.758;8.888;2024-03-17T01:40:48;6.20;99.90
7708;DHT22;3896;48.758;8.888;2024-03-17T01:43:13;6.20;99.90
7708;DHT22;3896;48.758;8.888;2024-03-17T01:45:39;6.20;99.90
7708;DHT22;3896;48.758;8.888;2024-03-17T01:48:11;6.10;99.90
7708;DHT22;3896;48.758;8.888;2024-03-17T01:50:38;6.10;99.90
7708;DHT22;3896;48.758;8.888;2024-03-17T01:53:05;6.10;99.90
7708;DHT22;3896;48.758;8.888;2024-03-17T01:55:38;6.10;99.90
7708;DHT22;3896;48.758;8.888;2024-03-17T01:58:05;6.10;99.90
7708;DHT22;3896;48.758;8.888;2024-03-17T02:00:35;6.10;99.90
7708;DHT22;3896;48.758;8.888;2024-03-17T02:03:08;6.00;99.90
7708;DHT22;3896;48.758;8.888;2024-03-17T02:05:38;6.00;99.90
7708;DHT22;3896;48.758;8.888;2024-03-17T02:08:07;6.00;99.90
7708;DHT22;3896;48.758;8.888;2024-03-17T02:10:33;6.00;99.90
7708;DHT22;3896;48.758;8.888;2024-03-17T02:13:00;6.00;99.90
7708;DHT22;3896;48.758;8.888;2024-03-17T02:15:26;6.00;99.90
7708;DHT22;3896;48.758;8.888;2024-03-17T02:17:51;6.00;99.90
7708;DHT22;3896;48.758;8.888;2024-03-17T02:20:17;6.00;99.90
7708;DHT22;3896;48.758;8.888;2024-03-17T02:22:43;6.00;99.90
7708;DHT22;3896;48.758;8.888;2024-03-17T02:25:09;6.00;99.90
7708;DHT22;3896;48.758;8.888;2024-03-17T02:27:37;6.00;99.90
7708;DHT22;3896;48.758;8.888;2024-03-17T02:30:03;5.90;99.90
7708;DHT22;3896;48.758;8.888;2024-03-17T02:32:34;6.00;99.90
7708;DHT22;3896;48.758;8.888;2024-03-17T02:35:00;6.00;99.90
7708;DHT22;3896;48.758;8.888;2024-03-17T02:37:26;6.00;99.90
7708;DHT22;3896;48.758;8.888;2024-03-17T02:39:52;6.00;99.90
7708;DHT22;3896;48.758;8.888;2024-03-17T02:42:18;6.00;99.90
7708;DHT22;3896;48.758;8.888;2024-03-17T02:57:40;6.00;99.90
7708;DHT22;3896;48.758;8.888;2024-03-17T03:00:06;5.90;99.90
7708;DHT22;3896;48.758;8.888;2024-03-17T03:02:34;5.90;99.90
7708;DHT22;3896;48.758;8.888;2024-03-17T03:05:00;5.90;99.90
7708;DHT22;3896;48.758;8.888;2024-03-17T03:07:25;5.90;99.90
7708;DHT22;3896;48.758;8.888;2024-03-17T03:09:51;5.90;99.90
7708;DHT22;3896;48.758;8.888;2024-03-17T03:12:16;5.90;99.90
7708;DHT22;3896;48.758;8.888;2024-03-17T03:14:42;5.90;99.90
7708;DHT22;3896;48.758;8.888;2024-03-17T03:17:07;5.90;99.90
7708;DHT22;3896;48.758;8.888;2024-03-17T03:19:33;5.90;99.90
7708;DHT22;3896;48.758;8.888;2024-03-17T03:21:59;5.90;99.90
7708;DHT22;3896;48.758;8.888;2024-03-17T03:24:25;5.90;99.90
7708;DHT22;3896;48.758;8.888;2024-03-17T03:26:50;5.90;99.90
7708;DHT22;3896;48.758;8.888;2024-03-17T03:29:16;5.90;99.90
7708;DHT22;3896;48.758;8.888;2024-03-17T03:31:42;5.80;99.90
7708;DHT22;3896;48.758;8.888;2024-03-17T03:34:07;5.90;99.90
7708;DHT22;3896;48.758;8.888;2024-03-17T03:36:34;5.80;99.90
7708;DHT22;3896;48.758;8.888;2024-03-17T03:39:01;5.80;99.90
7708;DHT22;3896;48.758;8.888;2024-03-17T03:41:29;5.80;99.90
7708;DHT22;3896;48.758;8.888;2024-03-17T03:43:55;5.80;99.90
7708;DHT22;3896;48.758;8.888;2024-03-17T03:46:21;5.80;99.90
7708;DHT22;3896;48.758;8.888;2024-03-17T03:48:46;5.80;99.90
7708;DHT22;3896;48.758;8.888;2024-03-17T03:51:12;5.80;99.90
7708;DHT22;3896;48.758;8.888;2024-03-17T03:53:38;5.80;99.90
7708;DHT22;3896;48.758;8.888;2024-03-17T03:56:05;5.80;99.90
7708;DHT22;3896;48.758;8.888;2024-03-17T03:58:34;5.80;99.90
7708;DHT22;3896;48.758;8.888;2024-03-17T04:01:06;5.80;99.90
7708;DHT22;3896;48.758;8.888;2024-03-17T04:03:35;5.80;99.90
7708;DHT22;3896;48.758;8.888;2024-03-17T04:06:10;5.80;99.90
7708;DHT22;3896;48.758;8.888;2024-03-17T04:08:37;5.70;99.90
7708;DHT22;3896;48.758;8.888;2024-03-17T04:11:05;5.70;99.90
7708;DHT22;3896;48.758;8.888;2024-03-17T04:13:31;5.70;99.90
7708;DHT22;3896;48.758;8.888;2024-03-17T04:16:00;5.70;99.90
7708;DHT22;3896;48.758;8.888;2024-03-17T04:18:27;5.60;99.90
7708;DHT22;3896;48.758;8.888;2024-03-17T04:20:56;5.70;99.90
7708;DHT22;3896;48.758;8.888;2024-03-17T04:23:22;5.70;99.90
7708;DHT22;3896;48.758;8.888;2024-03-17T04:25:51;5.60;99.90
7708;DHT22;3896;48.758;8.888;2024-03-17T04:28:16;5.60;99.90
7708;DHT22;3896;48.758;8.888;2024-03-17T04:30:42;5.60;99.90
7708;DHT22;3896;48.758;8.888;2024-03-17T04:33:09;5.50;99.90
7708;DHT22;3896;48.758;8.888;2024-03-17T04:35:36;5.50;99.90
7708;DHT22;3896;48.758;8.888;2024-03-17T04:38:02;5.50;99.90
7708;DHT22;3896;48.758;8.888;2024-03-17T04:40:27;5.50;99.90
7708;DHT22;3896;48.758;8.888;2024-03-17T04:42:53;5.40;99.90
7708;DHT22;3896;48.758;8.888;2024-03-17T04:45:18;5.40;99.90
7708;DHT22;3896;48.758;8.888;2024-03-17T04:47:44;5.40;99.90
7708;DHT22;3896;48.758;8.888;2024-03-17T04:50:09;5.30;99.90
7708;DHT22;3896;48.758;8.888;2024-03-17T04:52:35;5.30;99.90
7708;DHT22;3896;48.758;8.888;2024-03-17T04:55:01;5.30;99.90
7708;DHT22;3896;48.758;8.888;2024-03-17T04:57:26;5.20;99.90
7708;DHT22;3896;48.758;8.888;2024-03-17T04:59:52;5.20;99.90
7708;DHT22;3896;48.758;8.888;2024-03-17T05:02:17;5.20;99.90
7708;DHT22;3896;48.758;8.888;2024-03-17T05:04:43;5.10;99.90
7708;DHT22;3896;48.758;8.888;2024-03-17T05:07:08;5.10;99.90
7708;DHT22;3896;48.758;8.888;2024-03-17T05:09:34;5.10;99.90
7708;DHT22;3896;48.758;8.888;2024-03-17T05:12:00;5.00;99.90
7708;DHT22;3896;48.758;8.888;2024-03-17T05:14:26;5.00;99.90
7708;DHT22;3896;48.758;8.888;2024-03-17T05:16:52;5.00;99.90
7708;DHT22;3896;48.758;8.888;2024-03-17T05:19:17;5.00;99.90
7708;DHT22;3896;48.758;8.888;2024-03-17T05:21:44;4.90;99.90
7708;DHT22;3896;48.758;8.888;2024-03-17T05:24:10;5.00;99.90
7708;DHT22;3896;48.758;8.888;2024-03-17T05:26:37;4.90;99.90
7708;DHT22;3896;48.758;8.888;2024-03-17T05:29:02;4.90;99.90
7708;DHT22;3896;48.758;8.888;2024-03-17T05:31:28;4.90;99.90
7708;DHT22;3896;48.758;8.888;2024-03-17T05:33:54;4.90;99.90
7708;DHT22;3896;48.758;8.888;2024-03-17T05:36:20;4.90;99.90
7708;DHT22;3896;48.758;8.888;2024-03-17T05:38:46;4.90;99.90
7708;DHT22;3896;48.758;8.888;2024-03-17T05:41:13;4.90;99.90
7708;DHT22;3896;48.758;8.888;2024-03-17T05:43:39;4.90;99.90
7708;DHT22;3896;48.758;8.888;2024-03-17T05:46:09;4.90;99.90
7708;DHT22;3896;48.758;8.888;2024-03-17T05:48:36;4.90;99.90
7708;DHT22;3896;48.758;8.888;2024-03-17T05:51:05;4.80;99.90
7708;DHT22;3896;48.758;8.888;2024-03-17T05:53:31;4.90;99.90
7708;DHT22;3896;48.758;8.888;2024-03-17T05:56:01;4.80;99.90
7708;DHT22;3896;48.758;8.888;2024-03-17T05:58:27;4.90;99.90
7708;DHT22;3896;48.758;8.888;2024-03-17T06:00:52;4.80;99.90
7708;DHT22;3896;48.758;8.888;2024-03-17T06:03:19;4.80;99.90
7708;DHT22;3896;48.758;8.888;2024-03-17T06:05:44;4.80;99.90
7708;DHT22;3896;48.758;8.888;2024-03-17T06:08:13;4.80;99.90
7708;DHT22;3896;48.758;8.888;2024-03-17T06:10:44;4.80;99.90
7708;DHT22;3896;48.758;8.888;2024-03-17T06:13:10;4.80;99.90
7708;DHT22;3896;48.758;8.888;2024-03-17T06:15:39;4.80;99.90
7708;DHT22;3896;48.758;8.888;2024-03-17T06:18:05;4.80;99.90
7708;DHT22;3896;48.758;8.888;2024-03-17T06:20:34;4.80;99.90
7708;DHT22;3896;48.758;8.888;2024-03-17T06:23:00;4.80;99.90
7708;DHT22;3896;48.758;8.888;2024-03-17T06:25:25;4.80;99.90
7708;DHT22;3896;48.758;8.888;2024-03-17T06:27:51;4.80;99.90
7708;DHT22;3896;48.758;8.888;2024-03-17T06:30:17;4.90;99.90
7708;DHT22;3896;48.758;8.888;2024-03-17T06:32:44;4.90;99.90
7708;DHT22;3896;48.758;8.888;2024-03-17T06:35:16;4.90;99.90
7708;DHT22;3896;48.758;8.888;2024-03-17T06:37:43;4.90;99.90
7708;DHT22;3896;48.758;8.888;2024-03-17T06:40:12;5.00;99.90
7708;DHT22;3896;48.758;8.888;2024-03-17T06:42:40;5.00;99.90
7708;DHT22;3896;48.758;8.888;2024-03-17T06:45:06;5.00;99.90
7708;DHT22;3896;48.758;8.888;2024-03-17T06:47:34;5.10;99.90
7708;DHT22;3896;48.758;8.888;2024-03-17T06:50:00;5.10;99.90
7708;DHT22;3896;48.758;8.888;2024-03-17T06:52:26;5.20;99.90
7708;DHT22;3896;48.758;8.888;2024-03-17T06:54:51;5.20;99.90
7708;DHT22;3896;48.758;8.888;2024-03-17T06:57:17;5.30;99.90
7708;DHT22;3896;48.758;8.888;2024-03-17T06:59:43;5.30;99.90
7708;DHT22;3896;48.758;8.888;2024-03-17T07:02:10;5.40;99.90
7708;DHT22;3896;48.758;8.888;2024-03-17T07:04:38;5.50;99.90
7708;DHT22;3896;48.758;8.888;2024-03-17T07:07:04;5.50;99.90
7708;DHT22;3896;48.758;8.888;2024-03-17T07:09:30;5.60;99.90
7708;DHT22;3896;48.758;8.888;2024-03-17T07:11:55;5.70;99.90
7708;DHT22;3896;48.758;8.888;2024-03-17T07:14:21;5.80;99.90
7708;DHT22;3896;48.758;8.888;2024-03-17T07:16:46;5.80;99.90
7708;DHT22;3896;48.758;8.888;2024-03-17T07:19:12;5.90;99.90
7708;DHT22;3896;48.758;8.888;2024-03-17T07:21:38;6.00;99.90
7708;DHT22;3896;48.758;8.888;2024-03-17T07:24:03;6.10;99.90
7708;DHT22;3896;48.758;8.888;2024-03-17T07:26:30;6.20;99.90
7708;DHT22;3896;48.758;8.888;2024-03-17T07:28:56;6.30;99.90
7708;DHT22;3896;48.758;8.888;2024-03-17T07:31:23;6.30;99.90
7708;DHT22;3896;48.758;8.888;2024-03-17T07:33:48;6.40;99.90
7708;DHT22;3896;48.758;8.888;2024-03-17T07:36:14;6.50;99.90
7708;DHT22;3896;48.758;8.888;2024-03-17T07:38:40;6.60;99.90
7708;DHT22;3896;48.758;8.888;2024-03-17T07:41:07;6.70;99.90
7708;DHT22;3896;48.758;8.888;2024-03-17T07:43:36;6.90;99.90
7708;DHT22;3896;48.758;8.888;2024-03-17T07:46:07;7.00;99.90
7708;DHT22;3896;48.758;8.888;2024-03-17T07:48:37;7.10;99.90
7708;DHT22;3896;48.758;8.888;2024-03-17T07:51:04;7.10;99.90
7708;DHT22;3896;48.758;8.888;2024-03-17T07:53:30;7.30;99.90
7708;DHT22;3896;48.758;8.888;2024-03-17T07:56:00;7.40;99.90
7708;DHT22;3896;48.758;8.888;2024-03-17T07:58:26;7.50;99.90
7708;DHT22;3896;48.758;8.888;2024-03-17T08:00:56;7.60;99.90
7708;DHT22;3896;48.758;8.888;2024-03-17T08:03:21;7.70;99.90
7708;DHT22;3896;48.758;8.888;2024-03-17T08:05:50;7.80;99.90
7708;DHT22;3896;48.758;8.888;2024-03-17T08:08:16;7.90;99.90
7708;DHT22;3896;48.758;8.888;2024-03-17T08:10:42;8.00;99.90
7708;DHT22;3896;48.758;8.888;2024-03-17T08:13:08;8.10;99.90
7708;DHT22;3896;48.758;8.888;2024-03-17T08:15:36;8.20;99.90
7708;DHT22;3896;48.758;8.888;2024-03-17T08:18:02;8.30;99.90
7708;DHT22;3896;48.758;8.888;2024-03-17T08:20:29;8.40;99.90
7708;DHT22;3896;48.758;8.888;2024-03-17T08:22:55;8.50;99.90
7708;DHT22;3896;48.758;8.888;2024-03-17T08:25:21;8.60;99.90
7708;DHT22;3896;48.758;8.888;2024-03-17T08:27:46;8.70;99.90
7708;DHT22;3896;48.758;8.888;2024-03-17T08:30:12;8.80;99.90
7708;DHT22;3896;48.758;8.888;2024-03-17T08:32:41;8.90;99.90
7708;DHT22;3896;48.758;8.888;2024-03-17T08:35:07;9.00;99.90
7708;DHT22;3896;48.758;8.888;2024-03-17T08:37:32;9.10;99.90
7708;DHT22;3896;48.758;8.888;2024-03-17T08:40:01;9.20;99.90
7708;DHT22;3896;48.758;8.888;2024-03-17T08:42:26;9.40;99.90
7708;DHT22;3896;48.758;8.888;2024-03-17T08:44:52;9.50;99.90
7708;DHT22;3896;48.758;8.888;2024-03-17T08:47:18;9.60;99.90
7708;DHT22;3896;48.758;8.888;2024-03-17T08:49:44;9.70;99.90
7708;DHT22;3896;48.758;8.888;2024-03-17T08:52:09;9.90;99.90
7708;DHT22;3896;48.758;8.888;2024-03-17T08:54:35;10.00;99.90
7708;DHT22;3896;48.758;8.888;2024-03-17T08:57:00;10.10;99.90
7708;DHT22;3896;48.758;8.888;2024-03-17T08:59:26;10.20;99.90
7708;DHT22;3896;48.758;8.888;2024-03-17T09:01:51;10.40;99.90
7708;DHT22;3896;48.758;8.888;2024-03-17T09:04:17;10.50;99.90
7708;DHT22;3896;48.758;8.888;2024-03-17T09:06:42;10.60;99.90
7708;DHT22;3896;48.758;8.888;2024-03-17T09:09:08;10.80;99.90
7708;DHT22;3896;48.758;8.888;2024-03-17T09:11:33;10.90;99.90
7708;DHT22;3896;48.758;8.888;2024-03-17T09:13:59;11.00;99.90
7708;DHT22;3896;48.758;8.888;2024-03-17T09:16:25;11.10;99.90
7708;DHT22;3896;48.758;8.888;2024-03-17T09:18:51;11.20;99.90
7708;DHT22;3896;48.758;8.888;2024-03-17T09:21:17;11.30;99.90
7708;DHT22;3896;48.758;8.888;2024-03-17T09:23:42;11.40;99.90
7708;DHT22;3896;48.758;8.888;2024-03-17T09:26:09;11.50;99.90
7708;DHT22;3896;48.758;8.888;2024-03-17T09:28:36;11.60;99.90
7708;DHT22;3896;48.758;8.888;2024-03-17T09:31:02;11.70;99.90
7708;DHT22;3896;48.758;8.888;2024-03-17T09:33:29;11.80;99.90
7708;DHT22;3896;48.758;8.888;2024-03-17T09:36:03;11.90;99.90
7708;DHT22;3896;48.758;8.888;2024-03-17T09:38:31;12.00;99.90
7708;DHT22;3896;48.758;8.888;2024-03-17T09:40:57;12.10;99.90
7708;DHT22;3896;48.758;8.888;2024-03-17T09:43:24;12.20;99.90
7708;DHT22;3896;48.758;8.888;2024-03-17T09:45:50;12.20;99.90
7708;DHT22;3896;48.758;8.888;2024-03-17T09:48:19;12.30;99.90
7708;DHT22;3896;48.758;8.888;2024-03-17T09:50:53;12.40;99.90
7708;DHT22;3896;48.758;8.888;2024-03-17T09:53:26;12.40;99.90
7708;DHT22;3896;48.758;8.888;2024-03-17T09:58:24;12.60;99.90
7708;DHT22;3896;48.758;8.888;2024-03-17T10:00:50;12.60;99.30
7708;DHT22;3896;48.758;8.888;2024-03-17T10:06:07;12.80;97.90
7708;DHT22;3896;48.758;8.888;2024-03-17T10:08:32;12.90;96.00
7708;DHT22;3896;48.758;8.888;2024-03-17T10:10:59;13.00;94.60
7708;DHT22;3896;48.758;8.888;2024-03-17T10:13:25;13.10;93.40
7708;DHT22;3896;48.758;8.888;2024-03-17T10:15:51;13.20;92.60
7708;DHT22;3896;48.758;8.888;2024-03-17T10:18:23;13.40;92.20
7708;DHT22;3896;48.758;8.888;2024-03-17T10:20:49;13.40;91.90
7708;DHT22;3896;48.758;8.888;2024-03-17T10:23:20;13.60;91.20
7708;DHT22;3896;48.758;8.888;2024-03-17T10:25:46;13.70;91.00
7708;DHT22;3896;48.758;8.888;2024-03-17T10:28:13;13.80;90.80
7708;DHT22;3896;48.758;8.888;2024-03-17T10:30:39;14.00;90.40
7708;DHT22;3896;48.758;8.888;2024-03-17T10:33:06;14.00;89.80
7708;DHT22;3896;48.758;8.888;2024-03-17T10:35:35;14.10;89.30
7708;DHT22;3896;48.758;8.888;2024-03-17T10:38:03;14.30;88.60
7708;DHT22;3896;48.758;8.888;2024-03-17T10:40:33;14.30;87.50
7708;DHT22;3896;48.758;8.888;2024-03-17T10:43:01;14.50;87.10
7708;DHT22;3896;48.758;8.888;2024-03-17T10:45:28;14.60;86.30
7708;DHT22;3896;48.758;8.888;2024-03-17T10:48:01;14.60;85.80
7708;DHT22;3896;48.758;8.888;2024-03-17T10:50:30;14.80;85.50
7708;DHT22;3896;48.758;8.888;2024-03-17T10:53:01;14.80;84.90
7708;DHT22;3896;48.758;8.888;2024-03-17T10:55:31;14.90;84.50
7708;DHT22;3896;48.758;8.888;2024-03-17T10:58:00;15.00;83.70
7708;DHT22;3896;48.758;8.888;2024-03-17T11:00:27;15.00;83.10
7708;DHT22;3896;48.758;8.888;2024-03-17T11:02:54;15.10;82.70
7708;DHT22;3896;48.758;8.888;2024-03-17T11:05:28;15.20;81.80
7708;DHT22;3896;48.758;8.888;2024-03-17T11:07:55;15.20;81.70
7708;DHT22;3896;48.758;8.888;2024-03-17T11:10:23;15.30;81.70
7708;DHT22;3896;48.758;8.888;2024-03-17T11:17:52;15.60;80.50
7708;DHT22;3896;48.758;8.888;2024-03-17T11:20:20;15.60;80.20
7708;DHT22;3896;48.758;8.888;2024-03-17T11:22:49;15.70;79.60
7708;DHT22;3896;48.758;8.888;2024-03-17T11:28:00;15.80;79.30
7708;DHT22;3896;48.758;8.888;2024-03-17T11:30:42;15.90;78.60
7708;DHT22;3896;48.758;8.888;2024-03-17T11:46:59;16.40;75.10
7708;DHT22;3896;48.758;8.888;2024-03-17T11:49:33;16.50;74.10
7708;DHT22;3896;48.758;8.888;2024-03-17T11:52:00;16.60;73.60
7708;DHT22;3896;48.758;8.888;2024-03-17T11:54:37;16.70;73.40
7708;DHT22;3896;48.758;8.888;2024-03-17T11:57:05;16.70;72.80
7708;DHT22;3896;48.758;8.888;2024-03-17T11:59:31;16.80;72.30
7708;DHT22;3896;48.758;8.888;2024-03-17T12:01:57;16.90;71.80
7708;DHT22;3896;48.758;8.888;2024-03-17T12:04:24;16.90;71.80
7708;DHT22;3896;48.758;8.888;2024-03-17T12:06:52;16.90;71.10
7708;DHT22;3896;48.758;8.888;2024-03-17T12:11:58;16.90;70.60
7708;DHT22;3896;48.758;8.888;2024-03-17T12:14:24;16.90;70.50
7708;DHT22;3896;48.758;8.888;2024-03-17T12:17:40;16.90;70.20
7708;DHT22;3896;48.758;8.888;2024-03-17T12:19:47;16.90;70.00
7708;DHT22;3896;48.758;8.888;2024-03-17T12:22:18;17.00;69.60
7708;DHT22;3896;48.758;8.888;2024-03-17T12:24:51;16.90;69.10
7708;DHT22;3896;48.758;8.888;2024-03-17T12:27:19;17.00;69.10
7708;DHT22;3896;48.758;8.888;2024-03-17T12:29:45;17.00;69.00
7708;DHT22;3896;48.758;8.888;2024-03-17T12:34:45;17.00;67.90
7708;DHT22;3896;48.758;8.888;2024-03-17T12:37:18;17.00;68.10
7708;DHT22;3896;48.758;8.888;2024-03-17T12:39:45;17.00;67.80
7708;DHT22;3896;48.758;8.888;2024-03-17T12:42:12;17.00;67.50
7708;DHT22;3896;48.758;8.888;2024-03-17T12:44:55;17.10;67.30
7708;DHT22;3896;48.758;8.888;2024-03-17T12:47:26;17.10;67.00
7708;DHT22;3896;48.758;8.888;2024-03-17T12:49:54;17.00;66.90
7708;DHT22;3896;48.758;8.888;2024-03-17T12:52:27;17.10;66.90
7708;DHT22;3896;48.758;8.888;2024-03-17T12:57:49;17.10;66.40
7708;DHT22;3896;48.758;8.888;2024-03-17T13:00:34;17.20;66.20
7708;DHT22;3896;48.758;8.888;2024-03-17T13:03:04;17.20;66.20
7708;DHT22;3896;48.758;8.888;2024-03-17T13:05:31;17.20;66.60
7708;DHT22;3896;48.758;8.888;2024-03-17T13:07:57;17.30;66.30
7708;DHT22;3896;48.758;8.888;2024-03-17T13:10:25;17.40;65.90
7708;DHT22;3896;48.758;8.888;2024-03-17T13:13:04;17.40;65.70
7708;DHT22;3896;48.758;8.888;2024-03-17T13:15:31;17.40;65.70
7708;DHT22;3896;48.758;8.888;2024-03-17T13:18:00;17.50;65.80
7708;DHT22;3896;48.758;8.888;2024-03-17T13:20:26;17.50;65.50
7708;DHT22;3896;48.758;8.888;2024-03-17T13:22:52;17.50;65.30
7708;DHT22;3896;48.758;8.888;2024-03-17T13:25:19;17.50;65.60
7708;DHT22;3896;48.758;8.888;2024-03-17T13:28:02;17.50;65.00
7708;DHT22;3896;48.758;8.888;2024-03-17T13:30:32;17.50;64.90
7708;DHT22;3896;48.758;8.888;2024-03-17T13:32:59;17.50;64.90
7708;DHT22;3896;48.758;8.888;2024-03-17T13:35:26;17.60;65.10
7708;DHT22;3896;48.758;8.888;2024-03-17T13:37:52;17.60;65.60
7708;DHT22;3896;48.758;8.888;2024-03-17T13:40:21;17.60;65.00
7708;DHT22;3896;48.758;8.888;2024-03-17T13:42:51;17.70;64.80
7708;DHT22;3896;48.758;8.888;2024-03-17T13:45:19;17.70;64.20
7708;DHT22;3896;48.758;8.888;2024-03-17T13:47:55;17.80;64.50
7708;DHT22;3896;48.758;8.888;2024-03-17T13:50:21;17.80;64.30
7708;DHT22;3896;48.758;8.888;2024-03-17T13:52:47;17.90;64.20
7708;DHT22;3896;48.758;8.888;2024-03-17T13:55:16;18.00;63.70
7708;DHT22;3896;48.758;8.888;2024-03-17T13:57:46;18.10;63.40
7708;DHT22;3896;48.758;8.888;2024-03-17T14:00:13;18.20;63.40
7708;DHT22;3896;48.758;8.888;2024-03-17T14:02:45;18.40;63.10
7708;DHT22;3896;48.758;8.888;2024-03-17T14:05:19;18.50;63.50
7708;DHT22;3896;48.758;8.888;2024-03-17T14:07:45;18.60;63.10
7708;DHT22;3896;48.758;8.888;2024-03-17T14:10:15;18.70;63.00
7708;DHT22;3896;48.758;8.888;2024-03-17T14:12:40;18.80;62.60
7708;DHT22;3896;48.758;8.888;2024-03-17T14:15:08;18.80;63.00
7708;DHT22;3896;48.758;8.888;2024-03-17T14:17:41;18.80;62.60
7708;DHT22;3896;48.758;8.888;2024-03-17T14:20:07;18.90;63.00
7708;DHT22;3896;48.758;8.888;2024-03-17T14:22:37;18.80;62.80
7708;DHT22;3896;48.758;8.888;2024-03-17T14:25:04;18.90;62.50
7708;DHT22;3896;48.758;8.888;2024-03-17T14:27:31;18.90;62.30
7708;DHT22;3896;48.758;8.888;2024-03-17T14:29:56;18.90;62.10
7708;DHT22;3896;48.758;8.888;2024-03-17T14:32:22;18.90;61.90
7708;DHT22;3896;48.758;8.888;2024-03-17T14:34:47;18.90;61.80
7708;DHT22;3896;48.758;8.888;2024-03-17T14:37:13;18.90;61.80
7708;DHT22;3896;48.758;8.888;2024-03-17T14:39:39;18.90;61.70
7708;DHT22;3896;48.758;8.888;2024-03-17T14:42:06;18.90;61.40
7708;DHT22;3896;48.758;8.888;2024-03-17T14:44:34;18.80;61.30
7708;DHT22;3896;48.758;8.888;2024-03-17T14:47:01;18.80;61.50
7708;DHT22;3896;48.758;8.888;2024-03-17T14:49:28;18.80;61.90
7708;DHT22;3896;48.758;8.888;2024-03-17T14:51:53;18.80;62.10
7708;DHT22;3896;48.758;8.888;2024-03-17T14:54:19;18.80;62.30
7708;DHT22;3896;48.758;8.888;2024-03-17T14:56:45;18.70;61.90
7708;DHT22;3896;48.758;8.888;2024-03-17T14:59:12;18.70;62.00
7708;DHT22;3896;48.758;8.888;2024-03-17T15:01:38;18.70;62.00
7708;DHT22;3896;48.758;8.888;2024-03-17T15:04:03;18.70;62.10
7708;DHT22;3896;48.758;8.888;2024-03-17T15:06:30;18.70;62.30
7708;DHT22;3896;48.758;8.888;2024-03-17T15:11:28;18.60;61.60
7708;DHT22;3896;48.758;8.888;2024-03-17T15:13:54;18.60;61.60
7708;DHT22;3896;48.758;8.888;2024-03-17T15:16:19;18.60;61.80
7708;DHT22;3896;48.758;8.888;2024-03-17T15:18:46;18.50;61.80
7708;DHT22;3896;48.758;8.888;2024-03-17T15:21:11;18.50;62.50
7708;DHT22;3896;48.758;8.888;2024-03-17T15:23:38;18.40;62.20
7708;DHT22;3896;48.758;8.888;2024-03-17T15:26:06;18.40;62.50
7708;DHT22;3896;48.758;8.888;2024-03-17T15:28:42;18.30;62.70
7708;DHT22;3896;48.758;8.888;2024-03-17T15:31:08;18.30;63.10
7708;DHT22;3896;48.758;8.888;2024-03-17T15:33:35;18.30;63.10
7708;DHT22;3896;48.758;8.888;2024-03-17T15:36:05;18.20;63.30
7708;DHT22;3896;48.758;8.888;2024-03-17T15:38:31;18.20;63.50
7708;DHT22;3896;48.758;8.888;2024-03-17T15:40:59;18.10;63.60
7708;DHT22;3896;48.758;8.888;2024-03-17T15:43:24;18.10;63.60
7708;DHT22;3896;48.758;8.888;2024-03-17T15:45:50;18.10;63.80
7708;DHT22;3896;48.758;8.888;2024-03-17T15:48:15;18.00;63.80
7708;DHT22;3896;48.758;8.888;2024-03-17T15:50:41;17.90;64.10
7708;DHT22;3896;48.758;8.888;2024-03-17T15:53:08;17.90;65.00
7708;DHT22;3896;48.758;8.888;2024-03-17T15:55:34;17.80;64.10
7708;DHT22;3896;48.758;8.888;2024-03-17T15:58:00;17.80;64.30
7708;DHT22;3896;48.758;8.888;2024-03-17T16:00:25;17.70;64.50
7708;DHT22;3896;48.758;8.888;2024-03-17T16:02:51;17.70;64.60
7708;DHT22;3896;48.758;8.888;2024-03-17T16:05:19;17.60;64.90
7708;DHT22;3896;48.758;8.888;2024-03-17T16:07:45;17.50;65.10
7708;DHT22;3896;48.758;8.888;2024-03-17T16:10:13;17.50;66.00
7708;DHT22;3896;48.758;8.888;2024-03-17T16:12:39;17.40;65.20
7708;DHT22;3896;48.758;8.888;2024-03-17T16:15:06;17.40;65.50
7708;DHT22;3896;48.758;8.888;2024-03-17T16:17:33;17.30;65.50
7708;DHT22;3896;48.758;8.888;2024-03-17T16:20:01;17.30;65.50
7708;DHT22;3896;48.758;8.888;2024-03-17T16:22:35;17.20;65.60
7708;DHT22;3896;48.758;8.888;2024-03-17T16:25:03;17.10;65.70
7708;DHT22;3896;48.758;8.888;2024-03-17T16:27:30;17.10;65.80
7708;DHT22;3896;48.758;8.888;2024-03-17T16:29:56;17.00;65.90
7708;DHT22;3896;48.758;8.888;2024-03-17T16:32:23;17.00;65.90
7708;DHT22;3896;48.758;8.888;2024-03-17T16:34:48;16.90;66.00
7708;DHT22;3896;48.758;8.888;2024-03-17T16:37:14;16.90;66.20
7708;DHT22;3896;48.758;8.888;2024-03-17T16:39:39;16.80;66.00
7708;DHT22;3896;48.758;8.888;2024-03-17T16:42:05;16.70;65.90
7708;DHT22;3896;48.758;8.888;2024-03-17T16:47:26;16.60;66.60
7708;DHT22;3896;48.758;8.888;2024-03-17T16:49:54;16.50;67.10
7708;DHT22;3896;48.758;8.888;2024-03-17T16:52:21;16.50;67.30
7708;DHT22;3896;48.758;8.888;2024-03-17T16:54:49;16.40;67.60
7708;DHT22;3896;48.758;8.888;2024-03-17T16:57:15;16.40;67.80
7708;DHT22;3896;48.758;8.888;2024-03-17T16:59:41;16.30;68.00
7708;DHT22;3896;48.758;8.888;2024-03-17T17:02:17;16.30;68.30